sensor_id;sensor_type;location;lat;lon;timestamp;pressure;altitude;pressure_sealevel;temperature;humidity
29247;BME280;16272;48.188;9.964;2023-02-13T00:00:15;97614.31;;;1.71;83.63
29247;BME280;16272;48.188;9.964;2023-02-13T00:02:40;97619.03;;;1.61;83.40
29247;BME280;16272;48.188;9.964;2023-02-13T00:05:06;97614.66;;;1.87;83.46
29247;BME280;16272;48.188;9.964;2023-02-13T00:07:31;97614.22;;;1.99;82.55
29247;BME280;16272;48.188;9.964;2023-02-13T00:09:57;97618.78;;;2.18;80.52
29247;BME280;16272;48.188;9.964;2023-02-13T00:12:22;97617.63;;;2.01;81.10
29247;BME280;16272;48.188;9.964;2023-02-13T00:14:47;97617.63;;;2.01;80.94
29247;BME280;16272;48.188;9.964;2023-02-13T00:17:13;97617.88;;;1.95;81.07
29247;BME280;16272;48.188;9.964;2023-02-13T00:19:38;97625.25;;;1.84;82.19
29247;BME280;16272;48.188;9.964;2023-02-13T00:22:04;97616.16;;;1.94;81.53
29247;BME280;16272;48.188;9.964;2023-02-13T00:24:29;97613.41;;;2.23;79.97
29247;BME280;16272;48.188;9.964;2023-02-13T00:26:54;97611.84;;;1.92;80.69
29247;BME280;16272;48.188;9.964;2023-02-13T00:29:20;97607.50;;;1.92;82.03
29247;BME280;16272;48.188;9.964;2023-02-13T00:31:45;97608.97;;;1.99;80.68
29247;BME280;16272;48.188;9.964;2023-02-13T00:34:10;97607.38;;;1.95;81.16
29247;BME280;16272;48.188;9.964;2023-02-13T00:36:36;97604.50;;;1.78;82.24
29247;BME280;16272;48.188;9.964;2023-02-13T00:39:01;97603.25;;;1.88;82.18
29247;BME280;16272;48.188;9.964;2023-02-13T00:41:26;97598.50;;;1.99;81.42
29247;BME280;16272;48.188;9.964;2023-02-13T00:43:52;97599.25;;;1.78;82.18
29247;BME280;16272;48.188;9.964;2023-02-13T00:46:17;97603.31;;;2.12;80.65
29247;BME280;16272;48.188;9.964;2023-02-13T00:48:43;97613.13;;;2.07;80.21
29247;BME280;16272;48.188;9.964;2023-02-13T00:51:09;97611.31;;;1.82;81.62
29247;BME280;16272;48.188;9.964;2023-02-13T00:53:35;97604.50;;;1.78;82.06
29247;BME280;16272;48.188;9.964;2023-02-13T00:56:01;97606.31;;;1.76;82.21
29247;BME280;16272;48.188;9.964;2023-02-13T00:58:26;97604.88;;;1.92;81.63
29247;BME280;16272;48.188;9.964;2023-02-13T01:00:52;97609.19;;;1.68;83.55
29247;BME280;16272;48.188;9.964;2023-02-13T01:03:19;97606.09;;;1.82;81.70
29247;BME280;16272;48.188;9.964;2023-02-13T01:05:45;97612.19;;;1.82;81.88
29247;BME280;16272;48.188;9.964;2023-02-13T01:08:12;97603.50;;;1.55;84.35
29247;BME280;16272;48.188;9.964;2023-02-13T01:10:38;97612.63;;;1.43;86.43
29247;BME280;16272;48.188;9.964;2023-02-13T01:13:05;97617.09;;;1.67;83.79
29247;BME280;16272;48.188;9.964;2023-02-13T01:15:31;97619.19;;;1.82;83.28
29247;BME280;16272;48.188;9.964;2023-02-13T01:17:57;97612.41;;;1.51;84.88
29247;BME280;16272;48.188;9.964;2023-02-13T01:20:23;97616.69;;;1.52;84.85
29247;BME280;16272;48.188;9.964;2023-02-13T01:22:49;97613.44;;;1.45;85.97
29247;BME280;16272;48.188;9.964;2023-02-13T01:25:15;97611.66;;;1.73;83.37
29247;BME280;16272;48.188;9.964;2023-02-13T01:27:40;97616.56;;;1.82;83.01
29247;BME280;16272;48.188;9.964;2023-02-13T01:30:09;97612.41;;;1.51;84.83
29247;BME280;16272;48.188;9.964;2023-02-13T01:32:38;97608.88;;;1.77;84.00
29247;BME280;16272;48.188;9.964;2023-02-13T01:35:04;97613.34;;;1.74;84.17
29247;BME280;16272;48.188;9.964;2023-02-13T01:37:29;97611.31;;;1.57;84.50
29247;BME280;16272;48.188;9.964;2023-02-13T01:39:55;97607.44;;;1.42;86.72
29247;BME280;16272;48.188;9.964;2023-02-13T01:42:24;97614.44;;;1.68;84.27
29247;BME280;16272;48.188;9.964;2023-02-13T01:45:02;97610.91;;;1.69;84.02
29247;BME280;16272;48.188;9.964;2023-02-13T01:47:39;97618.13;;;1.36;87.15
29247;BME280;16272;48.188;9.964;2023-02-13T01:50:13;97611.56;;;1.76;84.59
29247;BME280;16272;48.188;9.964;2023-02-13T01:52:45;97608.09;;;2.00;82.52
29247;BME280;16272;48.188;9.964;2023-02-13T01:55:13;97604.44;;;2.05;81.96
29247;BME280;16272;48.188;9.964;2023-02-13T01:57:40;97609.50;;;2.09;82.19
29247;BME280;16272;48.188;9.964;2023-02-13T02:00:08;97609.19;;;1.93;83.25
29247;BME280;16272;48.188;9.964;2023-02-13T02:02:38;97618.59;;;1.74;84.77
29247;BME280;16272;48.188;9.964;2023-02-13T02:05:07;97615.66;;;1.83;85.01
29247;BME280;16272;48.188;9.964;2023-02-13T02:07:33;97617.78;;;1.98;82.70
29247;BME280;16272;48.188;9.964;2023-02-13T02:10:06;97611.47;;;1.79;82.98
29247;BME280;16272;48.188;9.964;2023-02-13T02:12:36;97608.25;;;1.71;85.48
29247;BME280;16272;48.188;9.964;2023-02-13T02:15:05;97603.84;;;1.96;83.49
29247;BME280;16272;48.188;9.964;2023-02-13T02:17:30;97609.19;;;1.93;83.53
29247;BME280;16272;48.188;9.964;2023-02-13T02:25:51;97616.03;;;1.97;82.99
29247;BME280;16272;48.188;9.964;2023-02-13T02:33:46;97604.56;;;2.25;80.77
29247;BME280;16272;48.188;9.964;2023-02-13T02:36:22;97607.09;;;2.03;82.64
29247;BME280;16272;48.188;9.964;2023-02-13T02:41:49;97598.75;;;2.64;79.37
29247;BME280;16272;48.188;9.964;2023-02-13T02:44:31;97608.56;;;2.35;79.61
29247;BME280;16272;48.188;9.964;2023-02-13T02:49:59;97605.75;;;2.16;80.98
29247;BME280;16272;48.188;9.964;2023-02-13T02:55:57;97607.56;;;2.14;80.91
29247;BME280;16272;48.188;9.964;2023-02-13T02:58:21;97604.69;;;2.22;81.05
29247;BME280;16272;48.188;9.964;2023-02-13T03:01:10;97603.66;;;2.50;80.00
29247;BME280;16272;48.188;9.964;2023-02-13T03:03:57;97608.22;;;2.68;79.11
29247;BME280;16272;48.188;9.964;2023-02-13T03:06:57;97603.44;;;2.56;79.53
29247;BME280;16272;48.188;9.964;2023-02-13T03:09:30;97602.41;;;2.36;80.75
29247;BME280;16272;48.188;9.964;2023-02-13T03:12:19;97603.44;;;2.56;78.99
29247;BME280;16272;48.188;9.964;2023-02-13T03:15:05;97606.19;;;2.53;79.52
29247;BME280;16272;48.188;9.964;2023-02-13T03:17:31;97608.22;;;2.45;80.16
29247;BME280;16272;48.188;9.964;2023-02-13T03:20:41;97619.63;;;2.20;80.76
29247;BME280;16272;48.188;9.964;2023-02-13T03:23:42;97610.88;;;2.19;80.16
29247;BME280;16272;48.188;9.964;2023-02-13T03:29:08;97626.34;;;2.27;81.20
29247;BME280;16272;48.188;9.964;2023-02-13T03:32:04;97626.22;;;2.07;81.75
29247;BME280;16272;48.188;9.964;2023-02-13T03:34:36;97627.25;;;2.26;80.54
29247;BME280;16272;48.188;9.964;2023-02-13T03:37:27;97633.00;;;1.87;83.65
29247;BME280;16272;48.188;9.964;2023-02-13T03:40:19;97632.19;;;2.10;83.15
29247;BME280;16272;48.188;9.964;2023-02-13T03:43:03;97637.19;;;2.16;81.60
29247;BME280;16272;48.188;9.964;2023-02-13T03:45:36;97631.00;;;2.19;82.02
29247;BME280;16272;48.188;9.964;2023-02-13T03:48:28;97640.00;;;2.12;82.05
29247;BME280;16272;48.188;9.964;2023-02-13T03:51:18;97633.94;;;2.10;81.49
29247;BME280;16272;48.188;9.964;2023-02-13T03:53:49;97642.03;;;2.04;82.55
29247;BME280;16272;48.188;9.964;2023-02-13T03:56:17;97652.34;;;1.83;84.13
29247;BME280;16272;48.188;9.964;2023-02-13T03:59:06;97649.41;;;1.92;83.40
29247;BME280;16272;48.188;9.964;2023-02-13T04:01:47;97652.94;;;1.91;82.86
29247;BME280;16272;48.188;9.964;2023-02-13T04:04:26;97660.66;;;1.96;83.49
29247;BME280;16272;48.188;9.964;2023-02-13T04:06:55;97662.94;;;1.53;85.56
29247;BME280;16272;48.188;9.964;2023-02-13T04:09:24;97670.78;;;1.80;84.67
29247;BME280;16272;48.188;9.964;2023-02-13T04:15:15;97661.97;;;1.82;83.66
29247;BME280;16272;48.188;9.964;2023-02-13T04:17:55;97663.63;;;1.85;83.02
29247;BME280;16272;48.188;9.964;2023-02-13T04:20:26;97664.94;;;1.98;82.07
29247;BME280;16272;48.188;9.964;2023-02-13T04:22:52;97660.78;;;1.91;83.13
29247;BME280;16272;48.188;9.964;2023-02-13T04:25:18;97658.81;;;1.98;81.58
29247;BME280;16272;48.188;9.964;2023-02-13T04:27:44;97659.31;;;2.09;81.18
29247;BME280;16272;48.188;9.964;2023-02-13T04:30:10;97661.34;;;2.01;81.84
29247;BME280;16272;48.188;9.964;2023-02-13T04:32:36;97659.81;;;1.95;81.83
29247;BME280;16272;48.188;9.964;2023-02-13T04:35:01;97654.56;;;1.95;82.12
29247;BME280;16272;48.188;9.964;2023-02-13T04:37:26;97657.78;;;2.04;81.77
29247;BME280;16272;48.188;9.964;2023-02-13T04:39:52;97642.16;;;2.00;81.48
29247;BME280;16272;48.188;9.964;2023-02-13T04:42:17;97653.97;;;2.12;81.54
29247;BME280;16272;48.188;9.964;2023-02-13T04:44:42;97646.22;;;1.84;81.76
29247;BME280;16272;48.188;9.964;2023-02-13T04:47:08;97650.69;;;2.06;81.89
29247;BME280;16272;48.188;9.964;2023-02-13T04:49:33;97645.53;;;2.28;81.18
29247;BME280;16272;48.188;9.964;2023-02-13T04:51:59;97652.34;;;2.33;79.75
29247;BME280;16272;48.188;9.964;2023-02-13T04:54:24;97656.44;;;2.41;79.90
29247;BME280;16272;48.188;9.964;2023-02-13T04:56:49;97653.94;;;2.37;79.52
29247;BME280;16272;48.188;9.964;2023-02-13T04:59:15;97659.44;;;2.55;79.40
29247;BME280;16272;48.188;9.964;2023-02-13T05:01:40;97658.38;;;2.35;81.09
29247;BME280;16272;48.188;9.964;2023-02-13T05:04:05;97657.81;;;2.27;80.45
29247;BME280;16272;48.188;9.964;2023-02-13T05:06:31;97657.31;;;2.16;81.32
29247;BME280;16272;48.188;9.964;2023-02-13T05:08:56;97664.78;;;2.28;81.00
29247;BME280;16272;48.188;9.964;2023-02-13T05:11:21;97654.00;;;2.11;82.48
29247;BME280;16272;48.188;9.964;2023-02-13T05:13:47;97662.47;;;2.43;80.82
29247;BME280;16272;48.188;9.964;2023-02-13T05:16:12;97665.47;;;2.33;79.32
29247;BME280;16272;48.188;9.964;2023-02-13T05:18:37;97657.13;;;2.22;80.72
29247;BME280;16272;48.188;9.964;2023-02-13T05:21:03;97658.59;;;2.29;79.87
29247;BME280;16272;48.188;9.964;2023-02-13T05:23:47;97659.66;;;2.49;79.33
29247;BME280;16272;48.188;9.964;2023-02-13T05:26:12;97654.28;;;2.52;79.36
29247;BME280;16272;48.188;9.964;2023-02-13T05:28:38;97658.22;;;2.40;79.27
29247;BME280;16272;48.188;9.964;2023-02-13T05:31:22;97661.59;;;2.44;80.37
29247;BME280;16272;48.188;9.964;2023-02-13T05:33:47;97648.41;;;2.45;79.60
29247;BME280;16272;48.188;9.964;2023-02-13T05:36:12;97653.72;;;2.44;80.40
29247;BME280;16272;48.188;9.964;2023-02-13T05:38:38;97651.94;;;1.95;82.40
29247;BME280;16272;48.188;9.964;2023-02-13T05:41:05;97653.25;;;1.82;84.37
29247;BME280;16272;48.188;9.964;2023-02-13T05:43:30;97653.56;;;1.73;84.47
29247;BME280;16272;48.188;9.964;2023-02-13T05:46:07;97647.81;;;1.88;84.27
29247;BME280;16272;48.188;9.964;2023-02-13T05:48:32;97650.59;;;2.09;82.45
29247;BME280;16272;48.188;9.964;2023-02-13T05:50:58;97653.81;;;2.17;82.33
29247;BME280;16272;48.188;9.964;2023-02-13T05:53:23;97653.91;;;2.14;82.36
29247;BME280;16272;48.188;9.964;2023-02-13T05:55:49;97648.47;;;2.44;80.13
29247;BME280;16272;48.188;9.964;2023-02-13T05:58:16;97649.03;;;2.52;80.13
29247;BME280;16272;48.188;9.964;2023-02-13T06:00:42;97652.56;;;2.51;79.75
29247;BME280;16272;48.188;9.964;2023-02-13T06:03:07;97662.47;;;2.19;81.42
29247;BME280;16272;48.188;9.964;2023-02-13T06:05:32;97665.59;;;2.05;82.46
29247;BME280;16272;48.188;9.964;2023-02-13T06:07:58;97666.78;;;1.95;83.19
29247;BME280;16272;48.188;9.964;2023-02-13T06:10:23;97668.97;;;1.82;82.78
29247;BME280;16272;48.188;9.964;2023-02-13T06:12:48;97666.53;;;2.02;83.09
29247;BME280;16272;48.188;9.964;2023-02-13T06:15:14;97668.50;;;2.21;81.84
29247;BME280;16272;48.188;9.964;2023-02-13T06:17:39;97672.22;;;2.39;81.17
29247;BME280;16272;48.188;9.964;2023-02-13T06:20:05;97669.78;;;2.34;80.34
29247;BME280;16272;48.188;9.964;2023-02-13T06:22:31;97675.53;;;2.20;80.83
29247;BME280;16272;48.188;9.964;2023-02-13T06:24:56;97665.94;;;2.45;80.56
29247;BME280;16272;48.188;9.964;2023-02-13T06:27:21;97681.25;;;1.80;83.98
29247;BME280;16272;48.188;9.964;2023-02-13T06:29:47;97674.69;;;1.93;83.31
29247;BME280;16272;48.188;9.964;2023-02-13T06:32:12;97672.63;;;2.28;81.91
29247;BME280;16272;48.188;9.964;2023-02-13T06:34:37;97675.22;;;2.30;80.19
29247;BME280;16272;48.188;9.964;2023-02-13T06:37:03;97675.00;;;2.34;80.41
29247;BME280;16272;48.188;9.964;2023-02-13T06:39:28;97670.03;;;2.01;82.23
29247;BME280;16272;48.188;9.964;2023-02-13T06:41:53;97672.41;;;2.09;82.08
29247;BME280;16272;48.188;9.964;2023-02-13T06:44:19;97674.97;;;2.11;82.74
29247;BME280;16272;48.188;9.964;2023-02-13T06:46:44;97670.13;;;2.25;80.97
29247;BME280;16272;48.188;9.964;2023-02-13T06:49:09;97666.97;;;2.15;81.32
29247;BME280;16272;48.188;9.964;2023-02-13T06:51:35;97673.09;;;1.89;83.75
29247;BME280;16272;48.188;9.964;2023-02-13T06:54:00;97673.84;;;2.18;82.82
29247;BME280;16272;48.188;9.964;2023-02-13T06:56:26;97675.72;;;2.39;81.91
29247;BME280;16272;48.188;9.964;2023-02-13T06:58:52;97680.25;;;2.34;80.14
29247;BME280;16272;48.188;9.964;2023-02-13T07:01:17;97682.56;;;2.44;81.06
29247;BME280;16272;48.188;9.964;2023-02-13T07:03:42;97679.47;;;2.32;80.93
29247;BME280;16272;48.188;9.964;2023-02-13T07:06:08;97681.94;;;2.12;82.97
29247;BME280;16272;48.188;9.964;2023-02-13T07:08:33;97681.13;;;2.10;82.91
29247;BME280;16272;48.188;9.964;2023-02-13T07:10:58;97686.53;;;2.30;82.40
29247;BME280;16272;48.188;9.964;2023-02-13T07:13:24;97685.66;;;2.55;80.65
29247;BME280;16272;48.188;9.964;2023-02-13T07:15:49;97690.28;;;2.23;81.06
29247;BME280;16272;48.188;9.964;2023-02-13T07:18:14;97689.91;;;2.09;83.18
29247;BME280;16272;48.188;9.964;2023-02-13T07:20:39;97695.41;;;2.26;82.29
29247;BME280;16272;48.188;9.964;2023-02-13T07:23:05;97695.31;;;2.54;81.64
29247;BME280;16272;48.188;9.964;2023-02-13T07:25:31;97690.91;;;2.55;80.71
29247;BME280;16272;48.188;9.964;2023-02-13T07:28:04;97699.66;;;2.79;79.63
29247;BME280;16272;48.188;9.964;2023-02-13T07:30:30;97698.78;;;2.79;79.76
29247;BME280;16272;48.188;9.964;2023-02-13T07:33:00;97705.44;;;2.15;82.04
29247;BME280;16272;48.188;9.964;2023-02-13T07:35:26;97711.81;;;1.54;85.02
29247;BME280;16272;48.188;9.964;2023-02-13T07:37:52;97713.63;;;1.79;86.28
29247;BME280;16272;48.188;9.964;2023-02-13T07:40:19;97707.66;;;1.74;85.58
29247;BME280;16272;48.188;9.964;2023-02-13T07:42:44;97706.88;;;1.98;85.39
29247;BME280;16272;48.188;9.964;2023-02-13T07:45:10;97710.97;;;2.06;83.86
29247;BME280;16272;48.188;9.964;2023-02-13T07:47:36;97717.69;;;1.61;86.79
29247;BME280;16272;48.188;9.964;2023-02-13T07:50:02;97730.69;;;1.36;88.28
29247;BME280;16272;48.188;9.964;2023-02-13T07:52:30;97719.41;;;1.34;88.48
29247;BME280;16272;48.188;9.964;2023-02-13T07:54:55;97724.84;;;1.27;89.09
29247;BME280;16272;48.188;9.964;2023-02-13T07:57:21;97727.44;;;1.27;89.67
29247;BME280;16272;48.188;9.964;2023-02-13T07:59:46;97726.59;;;1.27;89.47
29247;BME280;16272;48.188;9.964;2023-02-13T08:02:13;97734.59;;;1.22;90.45
29247;BME280;16272;48.188;9.964;2023-02-13T08:04:39;97725.50;;;1.34;89.72
29247;BME280;16272;48.188;9.964;2023-02-13T08:07:04;97725.22;;;1.43;88.76
29247;BME280;16272;48.188;9.964;2023-02-13T08:09:29;97727.47;;;1.82;87.90
29247;BME280;16272;48.188;9.964;2023-02-13T08:12:13;97733.72;;;2.05;85.32
29247;BME280;16272;48.188;9.964;2023-02-13T08:14:38;97727.31;;;2.14;84.89
29247;BME280;16272;48.188;9.964;2023-02-13T08:17:04;97734.38;;;1.85;84.93
29247;BME280;16272;48.188;9.964;2023-02-13T08:19:29;97730.94;;;2.10;85.32
29247;BME280;16272;48.188;9.964;2023-02-13T08:21:54;97724.38;;;2.23;84.72
29247;BME280;16272;48.188;9.964;2023-02-13T08:24:20;97733.00;;;2.27;83.42
29247;BME280;16272;48.188;9.964;2023-02-13T08:26:45;97736.97;;;2.62;82.89
29247;BME280;16272;48.188;9.964;2023-02-13T08:29:11;97720.91;;;2.95;80.31
29247;BME280;16272;48.188;9.964;2023-02-13T08:31:36;97734.84;;;2.97;80.00
29247;BME280;16272;48.188;9.964;2023-02-13T08:34:02;97730.97;;;2.84;80.69
29247;BME280;16272;48.188;9.964;2023-02-13T08:36:27;97734.19;;;2.67;81.01
29247;BME280;16272;48.188;9.964;2023-02-13T08:38:53;97735.13;;;2.41;83.17
29247;BME280;16272;48.188;9.964;2023-02-13T08:41:18;97729.28;;;2.07;83.65
29247;BME280;16272;48.188;9.964;2023-02-13T08:43:46;97732.25;;;2.23;84.71
29247;BME280;16272;48.188;9.964;2023-02-13T08:46:12;97742.59;;;2.01;85.29
29247;BME280;16272;48.188;9.964;2023-02-13T08:48:37;97742.03;;;1.91;86.55
29247;BME280;16272;48.188;9.964;2023-02-13T08:51:06;97741.41;;;2.10;85.77
29247;BME280;16272;48.188;9.964;2023-02-13T08:53:32;97741.13;;;1.92;87.00
29247;BME280;16272;48.188;9.964;2023-02-13T08:55:58;97741.97;;;1.93;86.57
29247;BME280;16272;48.188;9.964;2023-02-13T08:58:23;97735.88;;;1.65;88.75
29247;BME280;16272;48.188;9.964;2023-02-13T09:00:49;97742.81;;;1.67;88.38
29247;BME280;16272;48.188;9.964;2023-02-13T09:03:14;97744.31;;;2.27;87.56
29247;BME280;16272;48.188;9.964;2023-02-13T09:05:41;97741.44;;;2.60;83.10
29247;BME280;16272;48.188;9.964;2023-02-13T09:08:06;97739.41;;;2.92;81.36
29247;BME280;16272;48.188;9.964;2023-02-13T09:10:33;97729.81;;;3.15;79.92
29247;BME280;16272;48.188;9.964;2023-02-13T09:12:58;97718.56;;;3.35;79.35
29247;BME280;16272;48.188;9.964;2023-02-13T09:15:25;97724.91;;;3.51;79.10
29247;BME280;16272;48.188;9.964;2023-02-13T09:17:51;97724.66;;;3.35;79.30
29247;BME280;16272;48.188;9.964;2023-02-13T09:20:16;97723.75;;;3.12;79.74
29247;BME280;16272;48.188;9.964;2023-02-13T09:22:41;97723.88;;;3.09;80.15
29247;BME280;16272;48.188;9.964;2023-02-13T09:25:07;97730.78;;;2.88;81.81
29247;BME280;16272;48.188;9.964;2023-02-13T09:27:33;97733.94;;;2.74;82.65
29247;BME280;16272;48.188;9.964;2023-02-13T09:29:59;97730.06;;;3.08;79.71
29247;BME280;16272;48.188;9.964;2023-02-13T09:32:25;97739.06;;;2.52;82.05
29247;BME280;16272;48.188;9.964;2023-02-13T09:34:50;97736.66;;;2.95;80.57
29247;BME280;16272;48.188;9.964;2023-02-13T09:37:16;97728.09;;;2.90;80.83
29247;BME280;16272;48.188;9.964;2023-02-13T09:39:41;97724.25;;;3.00;80.30
29247;BME280;16272;48.188;9.964;2023-02-13T09:42:17;97726.81;;;3.02;80.53
29247;BME280;16272;48.188;9.964;2023-02-13T09:44:45;97734.06;;;2.46;82.87
29247;BME280;16272;48.188;9.964;2023-02-13T09:47:25;97736.88;;;1.61;88.28
29247;BME280;16272;48.188;9.964;2023-02-13T09:49:55;97733.53;;;2.10;87.38
29247;BME280;16272;48.188;9.964;2023-02-13T09:52:22;97730.53;;;2.22;86.94
29247;BME280;16272;48.188;9.964;2023-02-13T09:54:49;97737.75;;;1.89;87.85
29247;BME280;16272;48.188;9.964;2023-02-13T09:57:21;97737.50;;;1.70;88.27
29247;BME280;16272;48.188;9.964;2023-02-13T10:00:04;97735.16;;;1.60;87.78
29247;BME280;16272;48.188;9.964;2023-02-13T10:03:11;97739.28;;;2.21;84.92
29247;BME280;16272;48.188;9.964;2023-02-13T10:10:51;97739.91;;;1.76;89.31
29247;BME280;16272;48.188;9.964;2023-02-13T10:16:21;97739.81;;;2.06;87.18
29247;BME280;16272;48.188;9.964;2023-02-13T10:21:33;97745.66;;;2.14;84.72
29247;BME280;16272;48.188;9.964;2023-02-13T10:24:04;97749.28;;;2.10;86.09
29247;BME280;16272;48.188;9.964;2023-02-13T10:26:33;97750.06;;;2.38;84.72
29247;BME280;16272;48.188;9.964;2023-02-13T10:29:21;97744.31;;;2.27;85.57
29247;BME280;16272;48.188;9.964;2023-02-13T10:32:13;97743.38;;;2.55;83.46
29247;BME280;16272;48.188;9.964;2023-02-13T10:34:43;97746.72;;;2.84;83.56
29247;BME280;16272;48.188;9.964;2023-02-13T10:37:19;97740.91;;;2.75;81.37
29247;BME280;16272;48.188;9.964;2023-02-13T10:39:49;97738.59;;;2.90;82.53
29247;BME280;16272;48.188;9.964;2023-02-13T10:42:31;97742.81;;;2.70;82.69
29247;BME280;16272;48.188;9.964;2023-02-13T10:45:30;97744.63;;;2.68;83.64
29247;BME280;16272;48.188;9.964;2023-02-13T10:50:36;97733.88;;;2.51;83.76
29247;BME280;16272;48.188;9.964;2023-02-13T10:53:13;97733.09;;;2.49;84.36
29247;BME280;16272;48.188;9.964;2023-02-13T11:03:49;97722.69;;;2.71;81.76
29247;BME280;16272;48.188;9.964;2023-02-13T11:06:24;97718.91;;;2.78;82.19
29247;BME280;16272;48.188;9.964;2023-02-13T11:08:49;97705.31;;;2.92;82.31
29247;BME280;16272;48.188;9.964;2023-02-13T11:11:35;97706.47;;;2.83;82.43
29247;BME280;16272;48.188;9.964;2023-02-13T11:14:13;97701.72;;;2.46;83.72
29247;BME280;16272;48.188;9.964;2023-02-13T11:16:43;97703.16;;;2.29;84.21
29247;BME280;16272;48.188;9.964;2023-02-13T11:19:24;97703.59;;;2.42;85.42
29247;BME280;16272;48.188;9.964;2023-02-13T11:21:56;97703.44;;;2.47;83.78
29247;BME280;16272;48.188;9.964;2023-02-13T11:24:24;97705.78;;;2.54;84.95
29247;BME280;16272;48.188;9.964;2023-02-13T11:26:58;97705.34;;;2.67;83.41
29247;BME280;16272;48.188;9.964;2023-02-13T11:29:28;97709.09;;;2.34;83.58
29247;BME280;16272;48.188;9.964;2023-02-13T11:34:32;97700.19;;;2.40;83.20
29247;BME280;16272;48.188;9.964;2023-02-13T11:37:19;97696.66;;;2.65;82.01
29247;BME280;16272;48.188;9.964;2023-02-13T11:39:47;97697.44;;;2.92;81.29
29247;BME280;16272;48.188;9.964;2023-02-13T11:42:25;97706.44;;;2.61;82.25
29247;BME280;16272;48.188;9.964;2023-02-13T11:44:54;97707.00;;;2.93;81.39
29247;BME280;16272;48.188;9.964;2023-02-13T11:49:59;97700.81;;;3.18;79.92
29247;BME280;16272;48.188;9.964;2023-02-13T11:52:28;97707.44;;;2.57;80.21
29247;BME280;16272;48.188;9.964;2023-02-13T11:58:25;97710.81;;;2.35;83.08
29247;BME280;16272;48.188;9.964;2023-02-13T12:00:49;97699.72;;;2.78;80.97
29247;BME280;16272;48.188;9.964;2023-02-13T12:06:15;97696.59;;;2.90;80.77
29247;BME280;16272;48.188;9.964;2023-02-13T12:08:44;97691.25;;;2.93;79.72
29247;BME280;16272;48.188;9.964;2023-02-13T12:11:41;97694.41;;;2.79;79.99
29247;BME280;16272;48.188;9.964;2023-02-13T12:14:13;97695.94;;;3.30;77.68
29247;BME280;16272;48.188;9.964;2023-02-13T12:16:44;97688.97;;;3.07;79.61
29247;BME280;16272;48.188;9.964;2023-02-13T12:19:20;97694.25;;;2.84;79.53
29247;BME280;16272;48.188;9.964;2023-02-13T12:21:59;97684.31;;;2.92;79.99
29247;BME280;16272;48.188;9.964;2023-02-13T12:27:40;97690.69;;;2.61;81.43
29247;BME280;16272;48.188;9.964;2023-02-13T12:33:40;97685.34;;;2.64;81.31
29247;BME280;16272;48.188;9.964;2023-02-13T12:42:36;97674.44;;;2.99;80.66
29247;BME280;16272;48.188;9.964;2023-02-13T12:45:24;97660.63;;;3.16;78.24
29247;BME280;16272;48.188;9.964;2023-02-13T12:48:23;97669.06;;;3.02;78.35
29247;BME280;16272;48.188;9.964;2023-02-13T12:51:04;97662.03;;;3.02;78.86
29247;BME280;16272;48.188;9.964;2023-02-13T12:53:44;97664.47;;;3.29;78.62
29247;BME280;16272;48.188;9.964;2023-02-13T12:56:25;97656.84;;;3.23;77.88
29247;BME280;16272;48.188;9.964;2023-02-13T13:02:13;97660.53;;;3.19;79.54
29247;BME280;16272;48.188;9.964;2023-02-13T13:05:16;97654.53;;;3.15;79.07
29247;BME280;16272;48.188;9.964;2023-02-13T13:10:27;97658.06;;;3.14;75.86
29247;BME280;16272;48.188;9.964;2023-02-13T13:19:08;97656.50;;;3.32;78.44
29247;BME280;16272;48.188;9.964;2023-02-13T13:21:59;97657.22;;;3.58;75.28
29247;BME280;16272;48.188;9.964;2023-02-13T13:27:27;97650.78;;;3.65;75.57
29247;BME280;16272;48.188;9.964;2023-02-13T13:30:02;97644.25;;;3.53;77.07
29247;BME280;16272;48.188;9.964;2023-02-13T13:32:29;97653.94;;;3.53;76.96
29247;BME280;16272;48.188;9.964;2023-02-13T13:34:56;97644.13;;;3.34;76.67
29247;BME280;16272;48.188;9.964;2023-02-13T13:40:25;97648.53;;;3.56;75.92
29247;BME280;16272;48.188;9.964;2023-02-13T13:43:02;97651.75;;;4.05;74.29
29247;BME280;16272;48.188;9.964;2023-02-13T13:45:32;97647.13;;;4.10;74.72
29247;BME280;16272;48.188;9.964;2023-02-13T13:50:27;97647.25;;;3.86;73.90
29247;BME280;16272;48.188;9.964;2023-02-13T13:53:14;97649.34;;;4.40;74.14
29247;BME280;16272;48.188;9.964;2023-02-13T13:58:24;97645.09;;;3.76;75.98
29247;BME280;16272;48.188;9.964;2023-02-13T14:03:39;97654.91;;;4.13;75.30
29247;BME280;16272;48.188;9.964;2023-02-13T14:06:09;97661.16;;;3.68;75.13
29247;BME280;16272;48.188;9.964;2023-02-13T14:11:03;97662.84;;;3.48;76.11
29247;BME280;16272;48.188;9.964;2023-02-13T14:13:32;97657.47;;;3.52;77.11
29247;BME280;16272;48.188;9.964;2023-02-13T14:15:57;97662.69;;;4.15;75.34
29247;BME280;16272;48.188;9.964;2023-02-13T14:18:24;97662.38;;;3.81;75.33
29247;BME280;16272;48.188;9.964;2023-02-13T14:20:56;97661.81;;;3.73;76.17
29247;BME280;16272;48.188;9.964;2023-02-13T14:23:32;97664.03;;;3.62;75.89
29247;BME280;16272;48.188;9.964;2023-02-13T14:28:55;97656.25;;;3.81;76.18
29247;BME280;16272;48.188;9.964;2023-02-13T14:31:34;97663.81;;;4.09;75.02
29247;BME280;16272;48.188;9.964;2023-02-13T14:34:17;97666.34;;;3.03;78.31
29247;BME280;16272;48.188;9.964;2023-02-13T14:37:05;97662.53;;;3.34;78.48
29247;BME280;16272;48.188;9.964;2023-02-13T14:39:33;97665.53;;;3.25;78.49
29247;BME280;16272;48.188;9.964;2023-02-13T14:42:20;97668.91;;;3.05;77.89
29247;BME280;16272;48.188;9.964;2023-02-13T14:44:49;97671.25;;;3.12;79.10
29247;BME280;16272;48.188;9.964;2023-02-13T14:47:35;97672.59;;;2.53;80.86
29247;BME280;16272;48.188;9.964;2023-02-13T14:50:03;97670.03;;;2.52;82.31
29247;BME280;16272;48.188;9.964;2023-02-13T14:52:37;97670.22;;;2.22;81.79
29247;BME280;16272;48.188;9.964;2023-02-13T14:55:13;97666.16;;;2.62;80.54
29247;BME280;16272;48.188;9.964;2023-02-13T14:57:46;97664.34;;;2.64;79.94
29247;BME280;16272;48.188;9.964;2023-02-13T15:00:40;97656.56;;;2.85;79.78
29247;BME280;16272;48.188;9.964;2023-02-13T15:03:22;97659.38;;;3.48;77.73
29247;BME280;16272;48.188;9.964;2023-02-13T15:05:50;97646.28;;;3.46;76.55
29247;BME280;16272;48.188;9.964;2023-02-13T15:08:22;97658.06;;;2.92;77.96
29247;BME280;16272;48.188;9.964;2023-02-13T15:10:54;97653.78;;;3.56;75.78